Time;durP1;ratioP1;P1;durP2;ratioP2;P2;SDS_P1;SDS_P2;PMS_P1;PMS_P2;Temp;Humidity;BMP_temperature;BMP_pressure;BME280_temperature;BME280_humidity;BME280_pressure;Samples;Min_cycle;Max_cycle;Signal;HPM_P1;HPM_P2
2023/12/26 00:01:45;;;;;;;8.00;5.20;;;22.50;73.20;;;;;;5054676;28;20520;-86
2023/12/26 00:04:12;;;;;;;7.93;5.43;;;22.60;74.10;;;;;;5054768;28;20446;-86
2023/12/26 00:06:43;;;;;;;10.27;5.93;;;22.50;73.10;;;;;;5053532;28;21027;-86
2023/12/26 00:09:10;;;;;;;11.77;5.07;;;22.50;73.10;;;;;;5054487;28;20448;-86
2023/12/26 00:11:42;;;;;;;10.60;4.90;;;22.50;73.20;;;;;;5054647;28;20484;-86
2023/12/26 00:14:10;;;;;;;6.93;4.80;;;22.50;73.10;;;;;;5054632;28;21007;-86
2023/12/26 00:16:37;;;;;;;8.70;5.17;;;22.50;73.20;;;;;;5054556;28;20457;-86
2023/12/26 00:19:04;;;;;;;9.00;5.23;;;22.50;73.20;;;;;;5054498;28;20537;-86
2023/12/26 00:21:31;;;;;;;8.30;5.53;;;22.50;73.20;;;;;;5054372;28;20495;-86
2023/12/26 00:23:58;;;;;;;8.47;5.00;;;22.50;73.10;;;;;;5054475;28;20959;-86
2023/12/26 00:26:25;;;;;;;8.60;5.70;;;22.50;73.10;;;;;;5054062;28;21055;-86
2023/12/26 00:28:52;;;;;;;10.87;5.27;;;22.50;73.10;;;;;;5054209;28;21006;-86
2023/12/26 00:31:20;;;;;;;7.23;4.50;;;22.50;73.00;;;;;;5053949;28;21003;-86
2023/12/26 00:33:48;;;;;;;8.80;5.07;;;22.50;73.90;;;;;;5054281;28;20959;-86
2023/12/26 00:36:17;;;;;;;8.63;4.33;;;22.50;73.10;;;;;;5054068;28;20438;-87
2023/12/26 00:38:45;;;;;;;7.67;4.87;;;22.40;72.90;;;;;;5054100;28;20441;-86
2023/12/26 00:41:12;;;;;;;10.83;4.07;;;22.40;72.90;;;;;;5053899;28;20442;-86
2023/12/26 00:43:39;;;;;;;6.57;4.13;;;22.40;73.00;;;;;;5054132;28;20535;-86
2023/12/26 00:46:06;;;;;;;7.67;4.97;;;22.40;73.00;;;;;;5053288;28;20529;-86
2023/12/26 00:48:36;;;;;;;5.83;4.13;;;22.40;72.90;;;;;;5052535;28;20448;-87
2023/12/26 00:51:04;;;;;;;9.60;3.97;;;22.40;72.90;;;;;;5054145;28;20484;-86
2023/12/26 00:53:31;;;;;;;6.33;5.20;;;22.40;72.80;;;;;;5054595;28;20460;-86
2023/12/26 00:55:58;;;;;;;6.40;4.40;;;22.40;72.80;;;;;;5054288;28;20436;-86
2023/12/26 00:58:24;;;;;;;10.37;4.63;;;22.40;72.90;;;;;;5054093;28;20472;-86
2023/12/26 01:00:51;;;;;;;6.87;4.33;;;22.40;72.80;;;;;;5053961;28;20524;-86
2023/12/26 01:03:21;;;;;;;7.20;4.23;;;22.40;72.90;;;;;;5053981;28;20528;-87
2023/12/26 01:05:50;;;;;;;6.53;4.07;;;22.40;72.80;;;;;;5054135;28;20525;-86
2023/12/26 01:08:18;;;;;;;7.43;4.57;;;22.40;72.90;;;;;;5053880;28;20461;-86
2023/12/26 01:10:45;;;;;;;8.20;4.03;;;22.40;72.90;;;;;;5053712;28;20435;-86
2023/12/26 01:13:12;;;;;;;8.10;4.33;;;22.40;72.90;;;;;;5054061;28;20525;-86
2023/12/26 01:15:40;;;;;;;4.93;3.97;;;22.40;72.90;;;;;;5053801;28;20523;-86
2023/12/26 01:18:07;;;;;;;6.67;4.17;;;22.40;72.80;;;;;;5053501;28;20438;-86
2023/12/26 01:20:34;;;;;;;6.17;3.97;;;22.40;72.80;;;;;;5053636;28;20441;-86
2023/12/26 01:23:03;;;;;;;7.90;3.87;;;22.40;72.80;;;;;;5053726;28;20521;-86
2023/12/26 01:25:30;;;;;;;5.10;3.63;;;22.40;72.80;;;;;;5053729;28;20524;-86
2023/12/26 01:27:56;;;;;;;6.87;3.50;;;22.40;72.80;;;;;;5072098;28;20548;-86
2023/12/26 01:30:23;;;;;;;7.83;4.43;;;22.30;72.70;;;;;;5073371;28;20436;-86
2023/12/26 01:32:50;;;;;;;7.50;3.50;;;22.30;72.60;;;;;;5073768;28;20567;-86
2023/12/26 01:35:17;;;;;;;5.33;3.57;;;22.30;72.70;;;;;;5073603;28;20519;-87
2023/12/26 01:37:45;;;;;;;6.40;3.97;;;22.30;72.70;;;;;;5073474;28;20542;-86
2023/12/26 01:40:13;;;;;;;5.93;3.50;;;22.30;72.60;;;;;;5073422;28;20912;-86
2023/12/26 01:42:41;;;;;;;7.97;3.90;;;22.30;72.60;;;;;;5073573;28;20430;-86
2023/12/26 01:45:09;;;;;;;5.73;4.00;;;22.30;72.60;;;;;;5073693;28;20527;-86
2023/12/26 01:47:36;;;;;;;6.87;3.80;;;22.30;72.80;;;;;;5073668;28;20527;-86
2023/12/26 01:50:03;;;;;;;5.33;3.43;;;22.30;72.60;;;;;;5073277;28;20529;-86
2023/12/26 01:52:30;;;;;;;5.03;3.10;;;22.30;72.60;;;;;;5073714;28;20483;-86
2023/12/26 01:54:57;;;;;;;4.90;3.20;;;22.30;72.60;;;;;;5073239;28;20464;-87
2023/12/26 01:57:26;;;;;;;4.20;3.03;;;22.30;72.70;;;;;;5073535;28;20464;-86
2023/12/26 01:59:53;;;;;;;4.10;3.10;;;22.30;72.60;;;;;;5073194;28;20920;-86
2023/12/26 02:02:20;;;;;;;5.83;3.50;;;22.30;72.60;;;;;;5073214;28;20479;-86
2023/12/26 02:04:47;;;;;;;6.10;3.10;;;22.30;72.70;;;;;;5073345;28;20519;-86
2023/12/26 02:07:14;;;;;;;5.10;3.20;;;22.30;72.70;;;;;;5073201;28;20547;-86
2023/12/26 02:09:41;;;;;;;4.40;3.20;;;22.30;72.70;;;;;;5072903;28;20476;-86
2023/12/26 02:12:08;;;;;;;5.50;2.90;;;22.30;72.60;;;;;;5072960;28;20490;-86
2023/12/26 02:14:37;;;;;;;4.70;2.73;;;22.30;72.60;;;;;;5056347;28;20542;-86
2023/12/26 02:17:08;;;;;;;2.57;2.37;;;22.20;72.50;;;;;;5053133;28;20531;-86
2023/12/26 02:19:41;;;;;;;6.90;2.77;;;22.30;72.70;;;;;;5053195;28;20445;-86
2023/12/26 02:22:08;;;;;;;4.03;3.13;;;22.20;72.50;;;;;;5035921;28;20789;-86
2023/12/26 02:24:36;;;;;;;3.20;2.73;;;22.20;73.40;;;;;;5053873;28;21007;-86
2023/12/26 02:27:04;;;;;;;5.67;3.23;;;22.20;72.50;;;;;;5067003;28;21058;-86
2023/12/26 02:29:32;;;;;;;5.00;2.60;;;22.30;72.70;;;;;;5074116;28;20870;-87
2023/12/26 02:32:00;;;;;;;4.30;2.60;;;22.20;72.70;;;;;;5076885;28;21047;-86
2023/12/26 02:34:27;;;;;;;3.80;2.60;;;22.20;72.70;;;;;;5062600;28;20475;-86
2023/12/26 02:36:54;;;;;;;3.13;2.40;;;22.20;72.60;;;;;;5057025;28;20485;-86
2023/12/26 02:39:21;;;;;;;4.47;3.10;;;22.20;72.70;;;;;;5056710;28;20539;-86
2023/12/26 02:41:49;;;;;;;4.30;2.70;;;22.20;72.70;;;;;;5057181;28;20975;-86
2023/12/26 02:44:16;;;;;;;3.13;2.33;;;22.20;72.70;;;;;;5056765;28;20954;-86
2023/12/26 02:46:43;;;;;;;6.77;2.70;;;22.20;72.70;;;;;;5056569;28;20531;-86
2023/12/26 02:49:09;;;;;;;2.80;2.00;;;22.20;72.60;;;;;;5056546;28;20877;-86
2023/12/26 02:51:36;;;;;;;3.93;2.80;;;22.20;72.60;;;;;;5056407;28;20567;-86
2023/12/26 02:54:03;;;;;;;2.63;2.20;;;22.20;73.40;;;;;;5056346;28;20444;-86
2023/12/26 02:56:30;;;;;;;3.13;2.70;;;22.20;72.60;;;;;;5056692;28;20519;-86
2023/12/26 02:58:58;;;;;;;8.30;2.80;;;22.20;72.60;;;;;;5056419;28;20853;-87
2023/12/26 03:01:25;;;;;;;4.20;2.67;;;22.20;72.50;;;;;;5056392;28;20519;-86
2023/12/26 03:03:52;;;;;;;5.10;2.60;;;22.20;72.50;;;;;;5056256;28;20490;-87
2023/12/26 03:06:18;;;;;;;5.47;2.50;;;22.20;72.50;;;;;;5056110;28;20536;-86
2023/12/26 03:08:45;;;;;;;4.63;2.77;;;22.20;72.50;;;;;;5056162;28;20526;-86
2023/12/26 03:11:12;;;;;;;3.30;2.47;;;22.20;72.50;;;;;;5056102;28;20436;-86
2023/12/26 03:13:39;;;;;;;2.90;2.70;;;22.20;72.50;;;;;;5056112;28;20460;-87
2023/12/26 03:16:07;;;;;;;4.47;2.37;;;22.20;72.50;;;;;;5056047;28;20944;-86
2023/12/26 03:18:34;;;;;;;3.03;2.43;;;22.20;72.50;;;;;;5062981;28;20519;-87
2023/12/26 03:21:01;;;;;;;3.00;2.30;;;22.20;72.50;;;;;;5075821;28;20515;-86
2023/12/26 03:23:28;;;;;;;4.13;2.20;;;22.20;72.60;;;;;;5075782;28;20468;-86
2023/12/26 03:25:55;;;;;;;2.87;2.40;;;22.20;73.40;;;;;;5075814;28;20519;-86
2023/12/26 03:28:22;;;;;;;2.83;2.00;;;22.20;72.60;;;;;;5075813;28;20456;-86
2023/12/26 03:30:48;;;;;;;3.57;2.90;;;22.20;72.50;;;;;;5075841;28;20527;-86
2023/12/26 03:33:17;;;;;;;3.07;2.13;;;22.20;72.50;;;;;;5076118;28;20571;-86
2023/12/26 03:35:43;;;;;;;2.10;1.90;;;22.20;72.40;;;;;;5075726;28;20447;-87
2023/12/26 03:38:10;;;;;;;2.30;2.10;;;22.30;72.50;;;;;;5075710;28;20543;-87
2023/12/26 03:40:37;;;;;;;4.20;3.00;;;22.30;72.50;;;;;;5075401;28;20525;-87
2023/12/26 03:43:04;;;;;;;3.13;2.10;;;22.30;72.50;;;;;;5075688;28;20462;-87
2023/12/26 03:45:31;;;;;;;2.80;2.20;;;22.20;72.30;;;;;;5075535;28;20519;-86
2023/12/26 03:47:58;;;;;;;2.97;2.33;;;22.30;72.50;;;;;;5075778;28;20804;-86
2023/12/26 03:50:27;;;;;;;1.60;1.40;;;22.20;72.30;;;;;;5075403;28;20974;-86
2023/12/26 03:52:53;;;;;;;3.47;2.00;;;22.20;72.30;;;;;;5075612;28;20567;-86
2023/12/26 03:55:20;;;;;;;3.23;2.10;;;22.30;72.40;;;;;;5075295;28;21034;-87
2023/12/26 03:57:48;;;;;;;2.37;1.90;;;22.20;72.30;;;;;;5075189;28;20528;-87
2023/12/26 04:00:16;;;;;;;2.00;1.80;;;22.20;72.30;;;;;;5075217;28;20440;-86
2023/12/26 04:02:43;;;;;;;4.00;2.60;;;22.20;72.30;;;;;;5075356;28;20523;-87
2023/12/26 04:05:19;;;;;;;4.50;2.63;;;22.20;72.20;;;;;;5075250;28;20500;-87
2023/12/26 04:07:47;;;;;;;4.33;1.77;;;22.20;72.30;;;;;;5027448;28;20464;-87
2023/12/26 04:10:14;;;;;;;2.20;2.00;;;22.20;73.10;;;;;;5074936;28;20472;-86
2023/12/26 04:12:42;;;;;;;2.13;1.93;;;22.20;72.30;;;;;;5075054;28;20487;-87
2023/12/26 04:15:10;;;;;;;3.30;1.90;;;22.20;72.30;;;;;;5075025;28;20468;-87
2023/12/26 04:17:36;;;;;;;1.70;1.60;;;22.20;72.20;;;;;;5074793;28;20793;-86
2023/12/26 04:20:04;;;;;;;2.00;1.73;;;22.20;72.20;;;;;;5074761;28;20455;-86
2023/12/26 04:22:31;;;;;;;2.13;1.83;;;22.20;72.20;;;;;;5075295;28;20924;-87
2023/12/26 04:24:59;;;;;;;2.90;1.80;;;22.20;72.10;;;;;;5074948;28;20528;-86
2023/12/26 04:27:26;;;;;;;3.20;1.70;;;22.20;72.10;;;;;;5074507;28;20882;-86
2023/12/26 04:29:53;;;;;;;2.20;2.00;;;22.20;72.20;;;;;;5074674;28;20479;-86
2023/12/26 04:32:20;;;;;;;3.10;2.07;;;22.20;72.10;;;;;;5074629;28;20503;-87
2023/12/26 04:34:48;;;;;;;2.27;1.83;;;22.20;72.10;;;;;;5074655;28;21011;-87
2023/12/26 04:37:15;;;;;;;2.80;1.93;;;22.20;72.20;;;;;;5074543;28;20484;-86
2023/12/26 04:39:42;;;;;;;3.80;2.20;;;22.20;72.20;;;;;;5074361;28;20523;-86
2023/12/26 04:42:10;;;;;;;2.63;1.87;;;22.20;72.30;;;;;;5074593;28;20468;-87
2023/12/26 04:44:37;;;;;;;3.10;1.93;;;22.20;72.20;;;;;;5074221;28;20479;-86
2023/12/26 04:47:04;;;;;;;3.07;2.60;;;22.20;72.20;;;;;;5074273;28;20447;-86
2023/12/26 04:49:31;;;;;;;2.57;1.93;;;22.20;72.10;;;;;;5074471;28;20535;-86
2023/12/26 04:51:57;;;;;;;3.43;1.67;;;22.20;72.10;;;;;;5073449;28;20507;-86
2023/12/26 04:54:24;;;;;;;4.97;1.80;;;22.20;72.00;;;;;;5074078;28;20524;-86
2023/12/26 04:56:51;;;;;;;2.10;1.67;;;22.20;72.10;;;;;;5074414;28;20524;-86
2023/12/26 04:59:19;;;;;;;2.70;1.83;;;22.20;72.00;;;;;;5074314;28;20444;-86
2023/12/26 05:01:46;;;;;;;1.70;1.40;;;22.20;71.90;;;;;;5074164;28;20468;-87
2023/12/26 05:04:13;;;;;;;2.30;1.83;;;22.20;72.00;;;;;;5074206;28;20505;-87
2023/12/26 05:06:40;;;;;;;1.70;1.60;;;22.20;72.00;;;;;;5073845;28;20453;-86
2023/12/26 05:09:07;;;;;;;2.53;1.93;;;22.20;72.00;;;;;;5074113;28;20519;-87
2023/12/26 05:11:34;;;;;;;2.43;2.00;;;22.20;72.00;;;;;;5073928;28;20920;-86
2023/12/26 05:14:01;;;;;;;2.00;1.60;;;22.20;72.00;;;;;;5073871;28;20534;-86
2023/12/26 05:16:30;;;;;;;2.13;1.40;;;22.20;72.00;;;;;;5074093;28;20440;-86
2023/12/26 05:18:57;;;;;;;2.00;1.57;;;22.20;72.00;;;;;;5073827;28;20470;-86
2023/12/26 05:21:24;;;;;;;2.03;1.60;;;22.20;72.00;;;;;;5073834;28;20831;-86
2023/12/26 05:23:51;;;;;;;2.30;1.83;;;22.20;71.90;;;;;;5073754;28;20548;-86
2023/12/26 05:26:18;;;;;;;2.60;1.57;;;22.20;71.90;;;;;;5073562;28;20568;-86
2023/12/26 05:28:45;;;;;;;2.60;1.33;;;22.30;71.90;;;;;;5073871;28;20439;-86
2023/12/26 05:31:12;;;;;;;1.70;1.47;;;22.30;72.00;;;;;;5073835;28;20479;-86
2023/12/26 05:33:40;;;;;;;2.37;1.67;;;22.30;71.90;;;;;;5073525;28;20846;-87
2023/12/26 05:36:07;;;;;;;1.63;1.53;;;22.30;71.90;;;;;;5073258;28;20539;-86
2023/12/26 05:38:35;;;;;;;2.27;2.07;;;22.30;71.80;;;;;;5073372;28;20528;-86
2023/12/26 05:41:04;;;;;;;1.63;1.50;;;22.30;71.80;;;;;;5073588;28;20468;-86
2023/12/26 05:43:31;;;;;;;2.40;1.87;;;22.30;71.70;;;;;;5073411;28;20512;-86
2023/12/26 05:45:58;;;;;;;1.70;1.30;;;22.30;71.80;;;;;;5073621;28;20518;-86
2023/12/26 05:48:25;;;;;;;2.23;1.50;;;22.30;71.80;;;;;;5073428;28;20471;-86
2023/12/26 05:50:53;;;;;;;2.27;1.30;;;22.30;71.80;;;;;;5073294;28;20524;-86
2023/12/26 05:53:20;;;;;;;2.00;1.30;;;22.30;71.80;;;;;;5073320;28;20573;-87
2023/12/26 05:55:47;;;;;;;1.87;1.43;;;22.30;71.80;;;;;;5073478;28;20440;-86
2023/12/26 05:58:13;;;;;;;1.53;1.33;;;22.30;72.30;;;;;;5073384;28;20464;-86
2023/12/26 06:00:40;;;;;;;2.23;1.37;;;22.30;71.80;;;;;;5073291;28;20436;-86
2023/12/26 06:03:07;;;;;;;3.33;1.40;;;22.30;71.60;;;;;;5073323;28;20535;-86
2023/12/26 06:05:34;;;;;;;2.37;1.60;;;22.30;72.60;;;;;;5076465;28;20527;-86
2023/12/26 06:08:02;;;;;;;1.50;1.40;;;22.30;72.40;;;;;;5077524;28;20495;-86
2023/12/26 06:10:29;;;;;;;1.60;1.50;;;22.30;71.60;;;;;;5077176;28;20519;-86
2023/12/26 06:12:56;;;;;;;1.57;1.30;;;22.30;71.60;;;;;;5077720;28;20997;-86
2023/12/26 06:15:23;;;;;;;1.70;1.27;;;22.40;71.70;;;;;;5077193;28;20867;-86
2023/12/26 06:17:49;;;;;;;1.87;1.50;;;22.40;71.60;;;;;;5075598;28;20523;-86
2023/12/26 06:20:17;;;;;;;1.40;1.20;;;22.40;71.60;;;;;;5074845;28;20490;-86
2023/12/26 06:22:43;;;;;;;1.97;1.60;;;22.40;71.60;;;;;;5077536;28;20934;-86
2023/12/26 06:25:12;;;;;;;1.70;1.23;;;22.30;71.50;;;;;;5077069;28;20472;-86
2023/12/26 06:27:39;;;;;;;2.43;1.37;;;22.30;71.50;;;;;;5076677;28;20543;-87
2023/12/26 06:30:07;;;;;;;1.47;1.30;;;22.30;71.50;;;;;;5076842;28;20523;-86
2023/12/26 06:32:34;;;;;;;1.57;1.33;;;22.30;71.50;;;;;;5077006;28;20504;-86
2023/12/26 06:35:01;;;;;;;1.87;1.50;;;22.30;71.50;;;;;;5076945;28;20436;-86
2023/12/26 06:37:28;;;;;;;1.60;1.40;;;22.40;71.60;;;;;;5076644;28;20457;-86
2023/12/26 06:39:54;;;;;;;2.13;1.63;;;22.40;71.50;;;;;;5069024;28;20512;-86
2023/12/26 06:42:23;;;;;;;1.60;1.33;;;22.40;71.50;;;;;;5056922;28;20473;-86
2023/12/26 06:44:50;;;;;;;2.03;1.40;;;22.40;71.40;;;;;;5056945;28;20882;-87
2023/12/26 06:47:16;;;;;;;2.47;1.30;;;22.40;71.40;;;;;;5056444;28;20856;-86
2023/12/26 06:49:44;;;;;;;1.80;1.50;;;22.40;71.30;;;;;;5056791;28;20861;-86
2023/12/26 06:52:13;;;;;;;1.80;1.17;;;22.40;71.30;;;;;;5056504;28;20441;-86
2023/12/26 06:54:40;;;;;;;1.87;1.50;;;22.40;71.40;;;;;;5056687;28;20778;-87
2023/12/26 06:57:15;;;;;;;2.00;1.27;;;22.40;71.50;;;;;;5056675;28;20464;-86
2023/12/26 06:59:43;;;;;;;1.40;1.20;;;22.40;71.50;;;;;;5056289;28;20535;-86
2023/12/26 07:02:10;;;;;;;1.30;1.00;;;22.40;71.40;;;;;;5056431;28;20516;-86
2023/12/26 07:04:37;;;;;;;1.43;1.00;;;22.40;72.40;;;;;;5056379;28;20466;-86
2023/12/26 07:07:04;;;;;;;1.60;1.20;;;22.40;71.40;;;;;;5056309;28;20548;-86
2023/12/26 07:09:31;;;;;;;1.60;1.33;;;22.40;71.40;;;;;;5056224;28;20528;-86
2023/12/26 07:11:58;;;;;;;2.03;1.40;;;22.40;71.30;;;;;;5056132;28;20469;-86
2023/12/26 07:14:25;;;;;;;1.97;1.40;;;22.40;71.30;;;;;;5056155;28;20575;-87
2023/12/26 07:16:53;;;;;;;1.70;1.13;;;22.40;71.30;;;;;;5055895;28;20510;-87
2023/12/26 07:19:20;;;;;;;1.40;1.03;;;22.40;71.30;;;;;;5056188;28;20473;-87
2023/12/26 07:21:47;;;;;;;3.17;1.40;;;22.40;71.20;;;;;;5055932;28;20473;-87
2023/12/26 07:24:14;;;;;;;1.70;1.20;;;22.40;71.20;;;;;;5056087;28;20536;-86
2023/12/26 07:26:40;;;;;;;1.40;1.07;;;22.40;72.10;;;;;;5055690;28;20465;-86
2023/12/26 07:29:07;;;;;;;1.50;1.30;;;22.40;71.30;;;;;;5055675;28;20796;-86
2023/12/26 07:31:34;;;;;;;1.23;1.00;;;22.40;71.30;;;;;;5055479;28;20464;-86
2023/12/26 07:34:04;;;;;;;2.20;1.27;;;22.40;71.20;;;;;;5050003;28;20585;-86
2023/12/26 07:36:30;;;;;;;1.90;1.07;;;22.40;71.30;;;;;;5055187;28;20465;-86
2023/12/26 07:38:57;;;;;;;1.50;1.20;;;22.40;71.30;;;;;;5054886;28;20536;-85
2023/12/26 07:41:24;;;;;;;1.50;1.00;;;22.40;71.20;;;;;;5055402;28;20539;-86
2023/12/26 07:43:53;;;;;;;1.63;1.10;;;22.40;71.30;;;;;;5055354;28;20528;-87
2023/12/26 07:46:21;;;;;;;1.40;1.10;;;22.40;71.20;;;;;;5055360;28;20441;-86
2023/12/26 07:48:47;;;;;;;1.30;1.13;;;22.40;71.20;;;;;;5055321;28;20441;-87
2023/12/26 07:51:16;;;;;;;2.13;1.57;;;22.40;71.20;;;;;;5055327;28;20461;-86
2023/12/26 07:53:42;;;;;;;1.50;1.10;;;22.40;71.20;;;;;;5055259;28;20485;-86
2023/12/26 07:56:09;;;;;;;1.60;1.00;;;22.40;71.10;;;;;;5055324;28;20495;-86
2023/12/26 07:58:38;;;;;;;1.70;1.07;;;22.50;71.30;;;;;;5055297;28;20592;-86
2023/12/26 08:01:05;;;;;;;1.57;1.07;;;22.50;71.20;;;;;;5055206;28;20444;-86
2023/12/26 08:03:31;;;;;;;1.50;1.13;;;22.50;71.20;;;;;;5055110;28;20528;-86
2023/12/26 08:05:58;;;;;;;1.60;0.83;;;22.40;71.10;;;;;;5055107;28;20430;-87
2023/12/26 08:08:27;;;;;;;4.40;1.50;;;22.40;71.10;;;;;;5055095;28;20514;-87
2023/12/26 08:10:54;;;;;;;2.00;1.43;;;22.40;71.20;;;;;;5055228;28;20448;-87
2023/12/26 08:13:21;;;;;;;3.20;1.13;;;22.40;71.20;;;;;;5055123;28;20477;-87
2023/12/26 08:15:48;;;;;;;2.10;1.37;;;22.40;71.20;;;;;;5055189;28;20512;-87
2023/12/26 08:18:15;;;;;;;1.73;1.30;;;22.40;71.10;;;;;;5052988;28;20544;-86
2023/12/26 08:20:42;;;;;;;1.23;0.97;;;22.40;71.20;;;;;;5054868;28;20473;-87
2023/12/26 08:23:09;;;;;;;1.60;1.20;;;22.40;71.20;;;;;;5055056;28;20449;-86
2023/12/26 08:25:37;;;;;;;2.33;1.10;;;22.40;71.60;;;;;;5055024;28;20465;-86
2023/12/26 08:28:06;;;;;;;1.40;1.30;;;22.40;72.20;;;;;;5053734;28;20821;-87
2023/12/26 08:30:34;;;;;;;3.30;1.10;;;22.40;72.30;;;;;;5054982;28;20441;-87
2023/12/26 08:33:01;;;;;;;3.27;1.70;;;22.40;72.50;;;;;;5054457;28;20990;-87
2023/12/26 08:35:28;;;;;;;1.50;1.20;;;22.40;72.50;;;;;;5054732;28;20532;-86
2023/12/26 08:37:55;;;;;;;1.40;1.20;;;22.40;72.60;;;;;;5054556;28;20485;-87
2023/12/26 08:40:23;;;;;;;2.30;1.50;;;22.40;73.40;;;;;;5055569;28;20516;-87
2023/12/26 08:42:51;;;;;;;1.70;1.00;;;22.40;71.10;;;;;;5054218;28;20533;-87
2023/12/26 08:45:18;;;;;;;1.90;1.20;;;22.40;72.20;;;;;;5054270;28;20437;-88
2023/12/26 08:47:45;;;;;;;2.00;1.30;;;22.50;72.10;;;;;;5052555;28;20815;-87
2023/12/26 08:50:12;;;;;;;3.80;1.50;;;22.50;72.00;;;;;;5052126;28;21044;-87
2023/12/26 08:52:39;;;;;;;4.40;1.47;;;22.50;71.90;;;;;;5053590;28;20433;-87
2023/12/26 08:55:06;;;;;;;2.80;1.30;;;22.50;72.00;;;;;;5053434;28;20489;-87
2023/12/26 08:57:33;;;;;;;2.77;1.27;;;22.50;72.00;;;;;;5053705;28;20520;-87
2023/12/26 09:00:03;;;;;;;1.60;1.23;;;22.50;71.90;;;;;;5053490;28;20491;-87
2023/12/26 09:02:30;;;;;;;9.87;1.17;;;22.50;71.90;;;;;;5053620;28;20529;-87
2023/12/26 09:04:58;;;;;;;2.60;1.20;;;22.50;71.80;;;;;;5053124;28;20524;-87
2023/12/26 09:07:25;;;;;;;2.43;1.50;;;22.50;71.80;;;;;;5051455;28;20469;-87
2023/12/26 09:09:52;;;;;;;2.03;1.23;;;22.60;72.00;;;;;;5051543;28;20449;-87
2023/12/26 09:12:19;;;;;;;2.17;1.10;;;22.60;71.90;;;;;;5051378;28;20441;-87
2023/12/26 09:14:46;;;;;;;1.30;1.00;;;22.60;72.00;;;;;;5051237;28;20622;-87
2023/12/26 09:17:14;;;;;;;3.13;1.00;;;22.60;72.00;;;;;;5051296;28;20528;-87
2023/12/26 09:19:41;;;;;;;2.40;1.23;;;22.60;72.10;;;;;;5051345;28;20445;-87
2023/12/26 09:22:08;;;;;;;1.80;1.30;;;22.60;72.20;;;;;;5052995;28;20778;-86
2023/12/26 09:24:35;;;;;;;2.13;1.20;;;22.60;72.20;;;;;;5053457;28;20509;-86
2023/12/26 09:27:02;;;;;;;3.40;1.10;;;22.60;72.20;;;;;;5062246;28;20552;-86
2023/12/26 09:29:29;;;;;;;2.20;1.00;;;22.60;72.30;;;;;;5073170;28;20472;-86
2023/12/26 09:31:56;;;;;;;1.57;1.10;;;22.60;72.20;;;;;;5073090;28;21005;-87
2023/12/26 09:34:24;;;;;;;2.93;0.93;;;22.60;72.30;;;;;;5071677;28;21097;-87
2023/12/26 09:36:51;;;;;;;1.57;1.30;;;22.60;72.60;;;;;;5071764;28;20543;-88
2023/12/26 09:39:17;;;;;;;1.80;1.00;;;22.50;72.40;;;;;;5072398;28;20536;-87
2023/12/26 09:41:45;;;;;;;3.00;1.10;;;22.50;72.40;;;;;;5072765;28;20476;-87
2023/12/26 09:44:12;;;;;;;1.50;0.90;;;22.50;72.50;;;;;;5072692;28;20515;-86
2023/12/26 09:46:39;;;;;;;1.30;0.90;;;22.50;72.50;;;;;;5072761;28;20527;-87
2023/12/26 09:49:06;;;;;;;1.70;1.13;;;22.50;72.60;;;;;;5073221;28;20527;-88
2023/12/26 09:51:41;;;;;;;1.77;1.10;;;22.50;72.60;;;;;;5073067;28;20436;-87
2023/12/26 09:54:09;;;;;;;2.63;1.00;;;22.60;72.30;;;;;;5073014;28;20586;-87
2023/12/26 09:56:39;;;;;;;2.10;1.33;;;22.60;73.10;;;;;;5073173;28;20860;-87
2023/12/26 09:59:08;;;;;;;1.70;1.20;;;22.70;72.40;;;;;;5072764;28;20443;-88
2023/12/26 10:01:35;;;;;;;3.80;1.20;;;22.70;72.20;;;;;;5073508;28;20523;-86
2023/12/26 10:04:03;;;;;;;1.50;0.90;;;22.80;71.80;;;;;;5073481;28;20452;-86
2023/12/26 10:06:30;;;;;;;1.20;0.90;;;22.90;71.50;;;;;;5073019;28;20492;-86
2023/12/26 10:08:59;;;;;;;1.90;1.00;;;22.90;71.30;;;;;;5071940;28;20472;-87
2023/12/26 10:11:26;;;;;;;1.37;0.90;;;22.90;71.40;;;;;;5073033;28;20440;-86
2023/12/26 10:13:54;;;;;;;1.67;1.10;;;23.00;71.10;;;;;;5073098;28;20566;-87
2023/12/26 10:16:21;;;;;;;2.60;1.50;;;22.90;71.10;;;;;;5073175;28;20446;-87
2023/12/26 10:18:50;;;;;;;1.30;0.90;;;22.90;71.20;;;;;;5042662;28;21171;-87
2023/12/26 10:21:17;;;;;;;1.87;0.90;;;22.90;71.20;;;;;;5052663;28;20448;-85
2023/12/26 10:23:45;;;;;;;10.67;1.70;;;22.90;70.80;;;;;;5052662;28;20460;-90
2023/12/26 10:26:13;;;;;;;1.67;1.00;;;22.90;69.20;;;;;;5052320;28;20440;-87
2023/12/26 10:28:41;;;;;;;2.90;0.90;;;22.90;70.50;;;;;;5052640;28;20531;-88
2023/12/26 10:31:13;;;;;;;2.67;1.50;;;22.90;70.80;;;;;;5052686;28;20441;-90
2023/12/26 10:33:41;;;;;;;2.63;1.00;;;22.90;70.80;;;;;;5051467;28;20441;-88
2023/12/26 10:36:10;;;;;;;2.60;1.00;;;22.90;71.00;;;;;;5042737;28;20476;-87
2023/12/26 10:38:37;;;;;;;1.83;1.20;;;22.90;71.00;;;;;;5045968;28;20446;-95
2023/12/26 10:41:07;;;;;;;2.00;1.20;;;22.90;70.80;;;;;;5043511;28;20481;-86
2023/12/26 10:43:39;;;;;;;1.97;1.30;;;22.90;70.00;;;;;;5052957;28;20448;-91
2023/12/26 10:46:08;;;;;;;1.20;0.90;;;22.90;70.40;;;;;;5046332;28;20446;-87
2023/12/26 10:48:40;;;;;;;2.13;1.10;;;22.90;70.40;;;;;;5050922;28;20545;-88
2023/12/26 10:51:08;;;;;;;1.93;1.43;;;23.00;70.80;;;;;;5055074;28;20475;-89
2023/12/26 10:53:42;;;;;;;2.20;1.30;;;23.00;70.60;;;;;;5056297;28;20488;-89
2023/12/26 10:56:11;;;;;;;1.30;1.00;;;23.00;70.70;;;;;;5056220;28;20494;-88
2023/12/26 10:58:41;;;;;;;3.00;1.10;;;23.10;70.60;;;;;;5056131;28;20972;-90
2023/12/26 13:54:00;;;;;;;1.83;0.90;;;22.70;70.60;;;;;;5053260;28;20417;-88
2023/12/26 13:57:03;;;;;;;2.00;1.10;;;22.60;70.60;;;;;;5053241;28;20774;-88
2023/12/26 14:00:07;;;;;;;2.40;1.20;;;22.60;70.70;;;;;;5052767;28;20445;-87
2023/12/26 14:03:12;;;;;;;4.00;1.17;;;22.60;70.60;;;;;;5053020;28;20441;-88
2023/12/26 14:06:16;;;;;;;1.70;1.10;;;22.60;71.40;;;;;;5052944;28;20878;-88
2023/12/26 14:09:20;;;;;;;2.00;1.00;;;22.60;70.60;;;;;;5053025;28;20440;-87
2023/12/26 14:12:24;;;;;;;6.10;1.03;;;22.60;70.60;;;;;;5053056;28;20433;-87
2023/12/26 14:15:28;;;;;;;2.53;1.03;;;22.60;70.50;;;;;;5033204;28;20576;-87
2023/12/26 14:18:32;;;;;;;1.30;1.10;;;22.60;70.60;;;;;;5050729;28;20452;-87
2023/12/26 14:21:36;;;;;;;2.37;1.30;;;22.60;70.70;;;;;;5052998;28;20448;-87
2023/12/26 14:24:40;;;;;;;1.20;0.80;;;22.60;70.70;;;;;;5052667;28;20448;-87
2023/12/26 14:27:44;;;;;;;1.20;0.80;;;22.50;70.60;;;;;;5056655;28;20472;-87
2023/12/26 14:30:48;;;;;;;1.50;0.80;;;22.50;70.70;;;;;;5056582;28;20441;-87
2023/12/26 14:33:19;;;;;;;1.63;1.27;;;22.50;70.60;;;;;;5056834;28;20436;-87
2023/12/26 14:35:46;;;;;;;1.23;0.90;;;22.50;70.70;;;;;;5056342;28;20498;-87
2023/12/26 14:38:13;;;;;;;1.30;0.83;;;22.50;70.70;;;;;;5056444;28;20448;-87
2023/12/26 14:40:39;;;;;;;1.30;0.80;;;22.50;70.70;;;;;;5056955;28;20445;-87
2023/12/26 14:43:06;;;;;;;1.30;0.90;;;22.50;70.60;;;;;;5056956;28;20441;-87
2023/12/26 14:45:33;;;;;;;1.50;0.90;;;22.50;70.60;;;;;;5056406;28;20445;-87
2023/12/26 14:48:00;;;;;;;1.80;1.00;;;22.50;70.60;;;;;;5056413;28;20437;-87
2023/12/26 14:50:28;;;;;;;1.40;0.80;;;22.40;70.50;;;;;;5056212;28;20433;-88
2023/12/26 14:52:54;;;;;;;1.60;0.90;;;22.50;70.40;;;;;;5056063;28;20433;-87
2023/12/26 14:55:21;;;;;;;1.30;0.90;;;22.50;70.40;;;;;;5056050;28;21213;-88
2023/12/26 14:57:48;;;;;;;1.90;0.80;;;22.40;71.30;;;;;;5056163;28;20449;-88
2023/12/26 15:00:14;;;;;;;1.40;1.00;;;22.40;70.30;;;;;;5056296;28;20425;-89
2023/12/26 15:02:42;;;;;;;1.40;0.90;;;22.50;70.40;;;;;;5056289;28;20437;-90
2023/12/26 15:05:09;;;;;;;2.43;1.00;;;22.50;70.30;;;;;;5056387;28;20791;-89
2023/12/26 15:07:38;;;;;;;1.40;1.00;;;22.50;70.20;;;;;;5054786;28;20459;-88
2023/12/26 15:10:06;;;;;;;1.77;0.97;;;22.50;70.10;;;;;;5056062;28;20437;-88
2023/12/26 15:12:33;;;;;;;1.63;1.03;;;22.50;70.10;;;;;;5056046;28;20491;-88
2023/12/26 15:15:00;;;;;;;1.93;0.90;;;22.50;70.10;;;;;;5055808;28;20543;-88
2023/12/26 15:17:26;;;;;;;1.30;1.03;;;22.50;70.10;;;;;;5055901;28;20482;-88
2023/12/26 15:19:54;;;;;;;1.83;0.80;;;22.50;70.00;;;;;;5056347;28;20465;-88
2023/12/26 15:22:21;;;;;;;1.70;1.00;;;22.50;70.10;;;;;;5056054;28;20469;-88
2023/12/26 15:24:50;;;;;;;2.17;1.30;;;22.50;70.20;;;;;;5055889;28;20533;-88
2023/12/26 15:27:17;;;;;;;2.23;0.80;;;22.50;70.10;;;;;;5055499;28;20508;-87
2023/12/26 15:29:46;;;;;;;1.60;1.13;;;22.50;70.00;;;;;;5055847;28;20483;-87
2023/12/26 15:32:13;;;;;;;1.53;0.93;;;22.50;70.00;;;;;;5055624;28;20544;-87
2023/12/26 15:34:41;;;;;;;2.57;1.27;;;22.50;70.10;;;;;;5055751;28;20480;-88
2023/12/26 15:37:08;;;;;;;1.30;0.80;;;22.50;70.00;;;;;;5055664;28;21007;-89
2023/12/26 15:39:35;;;;;;;1.80;0.90;;;22.50;70.00;;;;;;5055590;28;20490;-89
2023/12/26 15:42:04;;;;;;;1.80;1.00;;;22.50;70.00;;;;;;5055557;28;20442;-89
2023/12/26 15:44:31;;;;;;;1.80;1.03;;;22.50;70.00;;;;;;5055478;28;20484;-88
2023/12/26 15:46:58;;;;;;;1.60;1.10;;;22.50;70.00;;;;;;5055483;28;20495;-91